createdAt,value
2024-03-16T00:02:04.144Z,23.13
2024-03-16T00:05:07.722Z,20.50
2024-03-16T00:08:10.963Z,23.27
2024-03-16T00:11:14.185Z,22.55
2024-03-16T00:14:17.389Z,23.30
2024-03-16T00:17:22.120Z,23.17
2024-03-16T00:20:27.128Z,23.20
2024-03-16T00:23:31.116Z,22.40
2024-03-16T00:26:34.333Z,25.05
2024-03-16T00:29:38.036Z,21.53
2024-03-16T00:32:42.006Z,23.33
2024-03-16T00:35:45.439Z,23.33
2024-03-16T00:38:51.342Z,21.45
2024-03-16T00:41:55.206Z,23.20
2024-03-16T00:44:58.613Z,25.30
2024-03-16T00:48:05.469Z,22.33
2024-03-16T00:51:08.828Z,23.65
2024-03-16T00:54:12.856Z,24.58
2024-03-16T00:57:16.076Z,25.13
2024-03-16T01:00:19.686Z,24.43
2024-03-16T01:03:22.978Z,25.47
2024-03-16T01:06:26.556Z,27.20
2024-03-16T01:09:30.644Z,27.33
2024-03-16T01:12:34.982Z,26.80
2024-03-16T01:15:38.271Z,26.37
2024-03-16T01:18:41.685Z,25.00
2024-03-16T01:21:44.996Z,28.75
2024-03-16T01:24:48.364Z,25.42
2024-03-16T01:27:51.555Z,24.38
2024-03-16T01:30:54.769Z,27.93
2024-03-16T01:33:58.176Z,26.20
2024-03-16T01:37:01.493Z,25.90
2024-03-16T01:40:09.573Z,27.98
2024-03-16T01:43:17.189Z,25.05
2024-03-16T01:46:20.781Z,26.90
2024-03-16T01:49:24.073Z,27.57
2024-03-16T01:52:27.349Z,27.73
2024-03-16T01:55:44.431Z,29.40
2024-03-16T01:58:49.808Z,30.85
2024-03-16T02:01:53.607Z,29.07
2024-03-16T02:04:56.789Z,32.07
2024-03-16T02:08:00.664Z,30.13
2024-03-16T02:11:04.083Z,31.00
2024-03-16T02:14:08.577Z,31.48
2024-03-16T02:17:12.298Z,33.73
2024-03-16T02:20:17.072Z,34.80
2024-03-16T02:23:21.165Z,32.20
2024-03-16T02:26:25.265Z,35.10
2024-03-16T02:29:29.554Z,34.28
2024-03-16T02:32:32.803Z,34.37
2024-03-16T02:35:36.234Z,34.77
2024-03-16T02:38:41.738Z,37.35
2024-03-16T02:41:45.009Z,35.00
2024-03-16T02:44:48.333Z,32.83
2024-03-16T02:47:51.501Z,36.07
2024-03-16T02:50:54.755Z,32.73
2024-03-16T02:53:58.196Z,34.28
2024-03-16T02:57:01.383Z,34.40
2024-03-16T03:00:08.769Z,36.55
2024-03-16T03:03:13.224Z,33.03
2024-03-16T03:06:16.396Z,36.50
2024-03-16T03:09:21.626Z,37.45
2024-03-16T03:12:25.741Z,36.20
2024-03-16T03:15:29.223Z,36.67
2024-03-16T03:18:32.496Z,33.57
2024-03-16T03:21:35.940Z,39.13
2024-03-16T03:24:39.227Z,31.83
2024-03-16T03:27:42.501Z,35.72
2024-03-16T03:30:45.806Z,36.33
2024-03-16T03:33:49.059Z,33.00
2024-03-16T03:36:52.318Z,44.77
2024-03-16T03:39:55.544Z,35.17
2024-03-16T03:43:01.441Z,35.28
2024-03-16T03:46:06.184Z,34.70
2024-03-16T03:49:27.227Z,35.80
2024-03-16T03:52:31.198Z,36.17
2024-03-16T03:55:34.355Z,33.33
2024-03-16T03:58:37.679Z,33.50
2024-03-16T04:01:40.862Z,28.98
2024-03-16T04:04:44.248Z,32.40
2024-03-16T04:07:47.464Z,28.30
2024-03-16T04:10:50.789Z,32.88
2024-03-16T04:13:53.968Z,29.83
2024-03-16T04:16:57.221Z,30.10
2024-03-16T04:20:00.433Z,31.13
2024-03-16T04:23:03.688Z,30.90
2024-03-16T04:26:07.023Z,30.27
2024-03-16T04:29:10.175Z,27.52
2024-03-16T04:32:13.341Z,28.38
2024-03-16T04:35:16.590Z,30.07
2024-03-16T04:38:19.839Z,27.93
2024-03-16T04:41:22.993Z,28.63
2024-03-16T04:44:26.197Z,27.63
2024-03-16T04:47:29.574Z,35.33
2024-03-16T04:50:33.141Z,31.23
2024-03-16T04:53:36.445Z,30.87
2024-03-16T04:56:39.600Z,28.50
2024-03-16T04:59:42.829Z,31.95
2024-03-16T05:02:45.992Z,46.28
2024-03-16T05:05:49.205Z,28.93
2024-03-16T05:08:52.657Z,29.17
2024-03-16T05:11:56.055Z,29.05
2024-03-16T05:15:00.007Z,28.65
2024-03-16T05:18:03.253Z,26.92
2024-03-16T05:21:07.814Z,29.53
2024-03-16T05:24:11.236Z,27.23
2024-03-16T05:27:16.358Z,26.25
2024-03-16T05:30:19.550Z,27.08
2024-03-16T05:33:22.764Z,26.63
2024-03-16T05:36:26.058Z,28.73
2024-03-16T05:39:29.929Z,27.70
2024-03-16T05:42:35.859Z,26.67
2024-03-16T05:45:39.350Z,26.63
2024-03-16T05:48:42.909Z,27.45
2024-03-16T05:51:46.099Z,28.23
2024-03-16T05:54:49.418Z,25.47
2024-03-16T05:57:52.817Z,25.35
2024-03-16T06:00:57.014Z,26.85
2024-03-16T06:04:00.590Z,24.85
2024-03-16T06:07:04.384Z,21.43
2024-03-16T06:10:10.791Z,24.90
2024-03-16T06:13:14.694Z,22.88
2024-03-16T06:16:17.952Z,29.38
2024-03-16T06:19:21.278Z,27.33
2024-03-16T06:22:24.536Z,24.67
2024-03-16T06:25:30.735Z,24.80
2024-03-16T06:28:37.375Z,23.35
2024-03-16T06:31:42.497Z,26.15
2024-03-16T06:34:45.741Z,26.08
2024-03-16T06:37:48.953Z,26.17
2024-03-16T06:40:52.194Z,28.27
2024-03-16T06:43:55.384Z,25.15
2024-03-16T06:46:58.510Z,31.40
2024-03-16T06:50:01.709Z,26.95
2024-03-16T06:53:05.184Z,27.37
2024-03-16T06:56:10.798Z,25.07
2024-03-16T06:59:16.229Z,22.45
2024-03-16T07:02:19.519Z,26.52
2024-03-16T07:05:22.792Z,28.35
2024-03-16T07:08:26.106Z,20.53
2024-03-16T07:11:30.013Z,24.37
2024-03-16T07:14:34.601Z,30.13
2024-03-16T07:17:37.878Z,26.05
2024-03-16T07:20:41.162Z,30.27
2024-03-16T07:23:45.099Z,24.20
2024-03-16T07:26:48.416Z,39.23
2024-03-16T07:29:52.486Z,26.52
2024-03-16T07:32:57.387Z,27.83
2024-03-16T07:36:00.692Z,28.70
2024-03-16T07:39:09.753Z,26.27
2024-03-16T07:42:13.008Z,25.20
2024-03-16T07:45:17.122Z,26.52
2024-03-16T07:48:20.440Z,23.77
2024-03-16T07:51:29.935Z,24.95
2024-03-16T07:54:33.213Z,25.03
2024-03-16T07:57:36.485Z,24.43
2024-03-16T08:00:39.805Z,22.92
2024-03-16T08:03:43.438Z,23.30
2024-03-16T08:06:47.080Z,22.67
2024-03-16T08:09:50.297Z,21.70
2024-03-16T08:12:53.594Z,21.60
2024-03-16T08:15:57.250Z,25.35
2024-03-16T08:19:00.510Z,22.55
2024-03-16T08:22:04.242Z,25.20
2024-03-16T08:25:08.562Z,23.73
2024-03-16T08:28:11.840Z,23.57
2024-03-16T08:31:15.143Z,20.85
2024-03-16T08:34:18.460Z,22.45
2024-03-16T08:37:21.699Z,24.63
2024-03-16T08:40:25.149Z,24.07
2024-03-16T08:43:28.759Z,20.73
2024-03-16T08:46:32.242Z,20.38
2024-03-16T08:49:36.141Z,24.67
2024-03-16T08:52:39.676Z,25.75
2024-03-16T08:55:43.326Z,20.40
2024-03-16T08:58:47.665Z,18.97
2024-03-16T09:01:51.091Z,23.13
2024-03-16T09:04:56.889Z,20.55
2024-03-16T09:08:00.504Z,20.88
2024-03-16T09:11:03.859Z,21.20
2024-03-16T09:14:07.810Z,20.33
2024-03-16T09:17:11.232Z,23.00
2024-03-16T09:20:14.963Z,22.20
2024-03-16T09:23:18.221Z,22.67
2024-03-16T09:26:21.616Z,23.50
2024-03-16T09:29:25.183Z,23.43
2024-03-16T09:32:28.388Z,24.73
2024-03-16T09:35:31.937Z,22.33
2024-03-16T09:38:36.002Z,21.70
2024-03-16T09:41:40.809Z,25.93
